Terminal Aerodrome Forecast
Issued by NWS Lake Charles, LA

Home | Current Version | Previous Version | Text Only | Print | Product List | Glossary On
Versions: 1 2 3 4 5 6 7 8 9 10 11 12 13 14
966
FTUS44 KLCH 250526
TAFLFT
TAF
KLFT 250526Z 2506/2606 00000KT P6SM SCT015
     FM251500 04006KT P6SM VCTS SCT025CB BKN050
     FM260100 04003KT P6SM SCT060=

USA.gov is the U.S. government's official web portal to all federal, state and local government web resources and services.